createdAt,value
2023-05-17T00:01:57.074Z,100311.00
2023-05-17T00:04:24.368Z,100302.00
2023-05-17T00:06:51.457Z,100302.00
2023-05-17T00:09:18.634Z,100305.00
2023-05-17T00:11:45.846Z,100295.00
2023-05-17T00:14:13.885Z,100295.00
2023-05-17T00:16:41.015Z,100293.00
2023-05-17T00:19:09.617Z,100294.00
2023-05-17T00:21:36.924Z,100307.00
2023-05-17T00:24:04.619Z,100298.00
2023-05-17T00:26:31.756Z,100298.00
2023-05-17T00:28:58.826Z,100300.00
2023-05-17T00:31:25.907Z,100302.00
2023-05-17T00:33:52.916Z,100293.00
2023-05-17T00:36:19.901Z,100286.00
2023-05-17T00:38:46.873Z,100302.00
2023-05-17T00:41:13.978Z,100296.00
2023-05-17T00:43:41.066Z,100299.00
2023-05-17T00:46:08.149Z,100288.00
2023-05-17T00:48:35.945Z,100292.00
2023-05-17T00:51:03.343Z,100295.00
2023-05-17T00:53:30.549Z,100290.00
2023-05-17T00:55:57.608Z,100291.00
2023-05-17T00:58:24.770Z,100285.00
2023-05-17T01:00:52.292Z,100289.00
2023-05-17T01:03:19.751Z,100287.00
2023-05-17T01:05:50.474Z,100282.00
2023-05-17T01:08:17.881Z,100289.00
2023-05-17T01:10:57.927Z,100287.00
2023-05-17T01:13:33.864Z,100285.00
2023-05-17T01:16:33.403Z,100286.00
2023-05-17T01:19:41.681Z,100286.00
2023-05-17T01:22:56.811Z,100286.00
2023-05-17T01:25:36.306Z,100290.00
2023-05-17T01:28:06.256Z,100268.00
2023-05-17T01:30:34.961Z,100281.00
2023-05-17T01:33:04.376Z,100268.00
2023-05-17T01:35:31.657Z,100263.00
2023-05-17T01:37:58.693Z,100281.00
2023-05-17T01:40:26.183Z,100276.00
2023-05-17T01:43:31.626Z,100270.00
2023-05-17T01:46:37.133Z,100264.00
2023-05-17T01:49:11.311Z,100282.00
2023-05-17T01:52:18.637Z,100275.00
2023-05-17T01:55:02.909Z,100274.00
2023-05-17T01:57:36.775Z,100261.00
2023-05-17T02:00:09.572Z,100265.00
2023-05-17T02:02:37.142Z,100262.00
2023-05-17T02:05:05.109Z,100275.00
2023-05-17T02:07:32.230Z,100278.00
2023-05-17T02:09:59.218Z,100267.00
2023-05-17T02:12:26.549Z,100270.00
2023-05-17T02:14:53.618Z,100267.00
2023-05-17T02:17:21.194Z,100272.00
2023-05-17T02:19:48.349Z,100272.00
2023-05-17T02:22:15.438Z,100279.00
2023-05-17T02:24:42.830Z,100284.00
2023-05-17T02:27:09.968Z,100284.00
2023-05-17T02:29:37.308Z,100285.00
2023-05-17T02:32:06.236Z,100281.00
2023-05-17T02:34:33.233Z,100289.00
2023-05-17T02:37:02.752Z,100288.00
2023-05-17T02:39:29.895Z,100288.00
2023-05-17T02:41:56.921Z,100276.00
2023-05-17T02:44:23.992Z,100284.00
2023-05-17T02:46:51.061Z,100284.00
2023-05-17T02:49:18.067Z,100281.00
2023-05-17T02:51:45.156Z,100279.00
2023-05-17T02:54:12.185Z,100283.00
2023-05-17T02:56:39.243Z,100277.00
2023-05-17T02:59:06.364Z,100272.00
2023-05-17T03:01:33.440Z,100275.00
2023-05-17T03:04:01.102Z,100282.00
2023-05-17T03:06:28.601Z,100282.00
2023-05-17T03:08:55.832Z,100277.00
2023-05-17T03:11:22.957Z,100281.00
2023-05-17T03:13:51.759Z,100278.00
2023-05-17T03:16:19.247Z,100288.00
2023-05-17T03:18:46.765Z,100287.00
2023-05-17T03:21:13.961Z,100279.00
2023-05-17T03:23:41.078Z,100287.00
2023-05-17T03:26:08.103Z,100286.00
2023-05-17T03:28:35.277Z,100291.00
2023-05-17T03:31:02.542Z,100299.00
2023-05-17T03:33:29.732Z,100300.00
2023-05-17T03:35:56.911Z,100313.00
2023-05-17T03:38:24.287Z,100311.00
2023-05-17T03:40:53.440Z,100316.00
2023-05-17T03:43:20.612Z,100309.00
2023-05-17T03:45:47.746Z,100339.00
2023-05-17T03:48:15.100Z,100338.00
2023-05-17T03:50:42.143Z,100356.00
2023-05-17T03:53:10.324Z,100337.00
2023-05-17T03:55:37.708Z,100317.00
2023-05-17T03:58:05.065Z,100318.00
2023-05-17T04:00:32.722Z,100347.00
2023-05-17T04:03:00.777Z,100344.00
2023-05-17T04:05:28.127Z,100334.00
2023-05-17T04:07:56.274Z,100346.00
2023-05-17T04:10:23.406Z,100352.00
2023-05-17T04:12:50.702Z,100345.00
2023-05-17T04:15:17.806Z,100336.00
2023-05-17T04:17:45.221Z,100337.00
2023-05-17T04:20:13.003Z,100351.00
2023-05-17T04:22:40.275Z,100343.00
2023-05-17T04:25:08.428Z,100346.00
2023-05-17T04:27:35.953Z,100349.00
2023-05-17T04:30:04.367Z,100350.00
2023-05-17T04:32:34.395Z,100351.00
2023-05-17T04:35:01.993Z,100350.00
2023-05-17T04:37:29.137Z,100355.00
2023-05-17T04:39:56.410Z,100360.00
2023-05-17T04:42:23.645Z,100359.00
2023-05-17T04:44:50.858Z,100367.00
2023-05-17T04:47:18.831Z,100361.00
2023-05-17T04:49:46.053Z,100361.00
2023-05-17T04:52:13.515Z,100367.00
2023-05-17T04:54:40.669Z,100372.00
2023-05-17T04:57:07.963Z,100375.00
2023-05-17T04:59:35.022Z,100364.00
2023-05-17T05:02:01.978Z,100373.00
2023-05-17T05:04:29.129Z,100377.00
2023-05-17T05:06:56.380Z,100380.00
2023-05-17T05:09:23.596Z,100392.00
2023-05-17T05:11:50.729Z,100401.00
2023-05-17T05:14:18.196Z,100393.00
2023-05-17T05:16:45.657Z,100399.00
2023-05-17T05:19:12.995Z,100399.00
2023-05-17T05:21:40.259Z,100403.00
2023-05-17T05:24:07.954Z,100399.00
2023-05-17T05:26:35.079Z,100407.00
2023-05-17T05:29:02.155Z,100346.00
2023-05-17T05:31:30.190Z,100401.00
2023-05-17T05:33:57.381Z,100411.00
2023-05-17T05:36:24.422Z,100407.00
2023-05-17T05:38:53.908Z,100406.00
2023-05-17T05:41:21.120Z,100411.00
2023-05-17T05:43:48.257Z,100410.00
2023-05-17T05:46:15.467Z,100409.00
2023-05-17T05:48:42.578Z,100397.00
2023-05-17T05:51:09.755Z,100410.00
2023-05-17T05:53:37.392Z,100385.00
2023-05-17T05:56:05.146Z,100413.00
2023-05-17T05:58:33.010Z,100412.00
2023-05-17T06:01:00.265Z,100412.00
2023-05-17T06:03:27.297Z,100417.00
2023-05-17T06:05:55.042Z,100412.00
2023-05-17T06:08:22.335Z,100405.00
2023-05-17T06:10:49.421Z,100412.00
2023-05-17T06:13:16.442Z,100405.00
2023-05-17T06:15:43.566Z,100420.00
2023-05-17T06:18:10.755Z,100420.00
2023-05-17T06:20:37.994Z,100427.00
2023-05-17T06:23:05.528Z,100435.00
2023-05-17T06:25:32.551Z,100437.00
2023-05-17T06:28:02.961Z,100422.00
2023-05-17T06:30:30.878Z,100443.00
2023-05-17T06:32:58.387Z,100446.00
2023-05-17T06:35:25.510Z,100452.00
2023-05-17T06:37:54.998Z,100452.00
2023-05-17T06:40:22.359Z,100466.00
2023-05-17T06:42:49.281Z,100462.00
2023-05-17T06:45:16.468Z,100466.00
2023-05-17T06:47:43.624Z,100462.00
2023-05-17T06:50:11.348Z,100469.00
2023-05-17T06:52:38.704Z,100457.00
2023-05-17T06:55:06.320Z,100458.00
2023-05-17T06:57:33.678Z,100462.00
2023-05-17T07:00:00.627Z,100465.00
2023-05-17T07:02:27.767Z,100459.00
2023-05-17T07:04:54.888Z,100458.00
2023-05-17T07:07:22.218Z,100455.00
2023-05-17T07:09:49.191Z,100456.00
2023-05-17T07:12:16.236Z,100472.00
2023-05-17T07:14:43.262Z,100467.00
2023-05-17T07:17:11.664Z,100476.00
2023-05-17T07:19:38.816Z,100460.00
2023-05-17T07:22:06.115Z,100462.00
2023-05-17T07:24:33.059Z,100468.00
2023-05-17T07:27:00.165Z,100466.00
2023-05-17T07:29:28.325Z,100468.00
2023-05-17T07:31:55.532Z,100477.00
2023-05-17T07:34:22.697Z,100475.00
2023-05-17T07:36:49.722Z,100480.00
2023-05-17T07:39:16.793Z,100480.00
2023-05-17T07:41:48.114Z,100493.00
2023-05-17T07:44:15.161Z,100486.00
2023-05-17T07:46:42.248Z,100498.00
2023-05-17T07:49:09.522Z,100503.00
2023-05-17T07:51:36.698Z,100513.00
2023-05-17T07:54:04.468Z,100507.00
2023-05-17T07:56:34.243Z,100499.00
2023-05-17T07:59:01.435Z,100512.00
2023-05-17T08:01:28.634Z,100509.00
2023-05-17T08:03:55.865Z,100511.00
2023-05-17T08:06:23.073Z,100510.00
2023-05-17T08:08:50.530Z,100516.00
2023-05-17T08:11:18.441Z,100508.00
2023-05-17T08:13:45.738Z,100525.00
2023-05-17T08:16:14.574Z,100523.00
2023-05-17T08:18:43.661Z,100525.00
2023-05-17T08:21:11.605Z,100526.00
2023-05-17T08:23:39.400Z,100519.00
2023-05-17T08:26:06.707Z,100523.00
2023-05-17T08:28:36.789Z,100542.00
2023-05-17T08:31:04.240Z,100540.00
2023-05-17T08:33:31.564Z,100555.00
2023-05-17T08:36:01.489Z,100548.00
2023-05-17T08:38:28.699Z,100554.00
2023-05-17T08:40:57.052Z,100555.00
2023-05-17T08:43:27.527Z,100564.00
2023-05-17T08:45:58.059Z,100562.00
2023-05-17T08:48:27.679Z,100554.00
2023-05-17T08:50:56.760Z,100561.00
2023-05-17T08:53:25.564Z,100558.00
2023-05-17T08:56:00.241Z,100551.00
2023-05-17T08:58:48.175Z,100568.00
2023-05-17T09:01:25.910Z,100570.00
2023-05-17T09:03:54.039Z,100556.00
2023-05-17T09:06:23.025Z,100546.00
2023-05-17T09:08:55.307Z,100541.00
2023-05-17T09:11:28.598Z,100554.00
2023-05-17T09:14:00.552Z,100550.00
2023-05-17T09:16:38.065Z,100563.00
2023-05-17T09:19:07.970Z,100564.00
2023-05-17T09:21:37.259Z,100558.00
2023-05-17T09:24:07.770Z,100557.00
2023-05-17T09:26:46.440Z,100572.00
2023-05-17T09:29:20.379Z,100571.00
2023-05-17T09:31:49.482Z,100568.00
2023-05-17T09:34:19.827Z,100579.00
2023-05-17T09:36:47.621Z,100579.00
2023-05-17T09:39:15.762Z,100587.00
2023-05-17T09:41:47.243Z,100601.00
2023-05-17T09:44:15.330Z,100589.00
2023-05-17T09:46:48.265Z,100600.00
2023-05-17T09:49:17.721Z,100580.00
2023-05-17T09:51:49.925Z,100595.00
2023-05-17T09:54:18.002Z,100586.00
2023-05-17T09:56:45.464Z,100588.00
2023-05-17T09:59:16.933Z,100594.00
2023-05-17T10:01:45.978Z,100590.00
2023-05-17T10:04:14.700Z,100572.00
2023-05-17T10:06:49.781Z,100598.00
2023-05-17T10:09:24.090Z,100601.00
2023-05-17T10:11:56.478Z,100595.00
2023-05-17T10:14:35.179Z,100599.00
2023-05-17T10:17:03.416Z,100590.00
2023-05-17T10:19:31.831Z,100583.00
2023-05-17T10:22:18.334Z,100600.00
2023-05-17T10:24:49.626Z,100542.00
2023-05-17T10:27:17.340Z,100583.00
2023-05-17T10:29:47.616Z,100598.00
2023-05-17T10:32:23.589Z,100589.00
2023-05-17T10:35:02.058Z,100590.00
2023-05-17T10:37:34.801Z,100576.00
2023-05-17T10:40:02.223Z,100576.00
2023-05-17T10:42:32.051Z,100570.00
2023-05-17T10:45:01.747Z,100572.00
2023-05-17T10:47:35.740Z,100594.00
2023-05-17T10:50:12.076Z,100604.00
2023-05-17T10:52:47.283Z,100595.00
2023-05-17T10:55:18.274Z,100589.00
2023-05-17T10:57:50.950Z,100580.00
2023-05-17T11:00:22.100Z,100586.00
2023-05-17T11:02:50.891Z,100574.00
2023-05-17T11:05:27.545Z,100582.00
2023-05-17T11:08:17.386Z,100596.00
2023-05-17T11:11:17.357Z,100581.00
2023-05-17T11:13:56.230Z,100576.00
2023-05-17T11:16:34.743Z,100576.00
2023-05-17T11:19:10.635Z,100573.00
2023-05-17T11:21:47.578Z,100577.00
2023-05-17T11:24:25.502Z,100574.00
2023-05-17T11:26:56.235Z,100588.00
2023-05-17T11:29:31.083Z,100567.00
2023-05-17T11:31:58.303Z,100577.00
2023-05-17T11:34:27.350Z,100583.00
2023-05-17T11:36:56.522Z,100588.00
2023-05-17T11:39:25.454Z,100571.00
2023-05-17T11:41:57.846Z,100580.00
2023-05-17T11:44:25.511Z,100591.00
2023-05-17T11:47:01.523Z,100581.00
2023-05-17T11:49:35.729Z,100593.00
2023-05-17T11:52:07.777Z,100592.00
2023-05-17T11:54:35.509Z,100593.00
2023-05-17T11:57:04.286Z,100601.00
2023-05-17T11:59:41.283Z,100616.00
2023-05-17T12:02:10.187Z,100605.00
2023-05-17T12:04:39.225Z,100605.00
2023-05-17T12:07:13.110Z,100621.00
2023-05-17T12:09:40.718Z,100624.00
2023-05-17T12:12:08.779Z,100612.00
2023-05-17T12:14:36.240Z,100612.00
2023-05-17T12:17:08.108Z,100616.00
2023-05-17T12:19:35.872Z,100618.00
2023-05-17T12:22:14.680Z,100621.00
2023-05-17T12:24:43.767Z,100629.00
2023-05-17T12:27:11.359Z,100628.00
2023-05-17T12:29:39.505Z,100632.00
2023-05-17T12:32:10.547Z,100645.00
2023-05-17T12:34:38.355Z,100643.00
2023-05-17T12:37:10.486Z,100647.00
2023-05-17T12:39:38.361Z,100654.00
2023-05-17T12:42:06.644Z,100664.00
2023-05-17T12:44:33.956Z,100664.00
2023-05-17T12:47:03.076Z,100670.00
2023-05-17T12:49:30.153Z,100679.00
2023-05-17T12:52:04.733Z,100676.00
2023-05-17T12:54:33.334Z,100672.00
2023-05-17T12:57:12.868Z,100682.00
2023-05-17T12:59:52.650Z,100685.00
2023-05-17T13:02:21.103Z,100674.00
2023-05-17T13:04:48.482Z,100696.00
2023-05-17T13:07:25.584Z,100695.00
2023-05-17T13:09:52.596Z,100703.00
2023-05-17T13:12:24.634Z,100699.00
2023-05-17T13:14:53.864Z,100707.00
2023-05-17T13:17:34.258Z,100704.00
2023-05-17T13:20:01.842Z,100703.00
2023-05-17T13:22:29.203Z,100699.00
2023-05-17T13:24:56.239Z,100707.00
2023-05-17T13:27:23.471Z,100717.00
2023-05-17T13:29:50.828Z,100706.00
2023-05-17T13:32:18.069Z,100719.00
2023-05-17T13:34:46.113Z,100717.00
2023-05-17T13:37:13.403Z,100720.00
2023-05-17T13:39:42.022Z,100711.00
2023-05-17T13:42:11.073Z,100724.00
2023-05-17T13:44:38.671Z,100726.00
2023-05-17T13:47:06.420Z,100727.00
2023-05-17T13:49:33.596Z,100727.00
2023-05-17T13:52:01.021Z,100729.00
2023-05-17T13:54:28.244Z,100732.00
2023-05-17T13:56:57.786Z,100735.00
2023-05-17T13:59:25.062Z,100740.00
2023-05-17T14:01:52.738Z,100743.00
2023-05-17T14:04:21.377Z,100743.00
2023-05-17T14:06:50.700Z,100739.00
2023-05-17T14:09:20.085Z,100739.00
2023-05-17T14:11:47.337Z,100751.00
2023-05-17T14:14:14.476Z,100743.00
2023-05-17T14:16:41.621Z,100744.00
2023-05-17T14:19:09.187Z,100750.00
2023-05-17T14:21:36.409Z,100741.00
2023-05-17T14:24:03.661Z,100746.00
2023-05-17T14:26:30.860Z,100747.00
2023-05-17T14:28:57.843Z,100752.00
2023-05-17T14:31:24.868Z,100755.00
2023-05-17T14:33:52.026Z,100758.00
2023-05-17T14:36:19.287Z,100746.00
2023-05-17T14:38:46.380Z,100763.00
2023-05-17T14:41:13.621Z,100770.00
2023-05-17T14:43:40.898Z,100769.00
2023-05-17T14:46:08.034Z,100774.00
2023-05-17T14:48:35.013Z,100779.00
2023-05-17T14:51:03.524Z,100776.00
2023-05-17T14:53:31.255Z,100770.00
2023-05-17T14:55:59.218Z,100781.00
2023-05-17T14:58:26.584Z,100798.00
2023-05-17T15:01:05.003Z,100806.00
2023-05-17T15:03:33.395Z,100812.00
2023-05-17T15:06:03.269Z,100813.00
2023-05-17T15:08:32.482Z,100823.00
2023-05-17T15:10:59.629Z,100822.00
2023-05-17T15:13:28.117Z,100823.00
2023-05-17T15:15:58.756Z,100828.00
2023-05-17T15:18:26.116Z,100830.00
2023-05-17T15:20:53.361Z,100835.00
2023-05-17T15:23:20.491Z,100851.00
2023-05-17T15:25:47.600Z,100846.00
2023-05-17T15:28:14.773Z,100859.00
2023-05-17T15:30:42.298Z,100851.00
2023-05-17T15:33:09.913Z,100866.00
2023-05-17T15:35:41.511Z,100837.00
2023-05-17T15:38:08.787Z,100865.00
2023-05-17T15:40:35.944Z,100862.00
2023-05-17T15:43:03.406Z,100871.00
2023-05-17T15:45:30.869Z,100846.00
2023-05-17T15:47:58.462Z,100860.00
2023-05-17T15:50:25.543Z,100881.00
2023-05-17T15:52:52.567Z,100869.00
2023-05-17T15:55:20.135Z,100879.00
2023-05-17T15:57:47.724Z,100889.00
2023-05-17T16:00:15.288Z,100895.00
2023-05-17T16:02:42.531Z,100893.00
2023-05-17T16:05:10.104Z,100889.00
2023-05-17T16:07:37.322Z,100886.00
2023-05-17T16:10:04.866Z,100890.00
2023-05-17T16:12:31.765Z,100890.00
2023-05-17T16:14:59.416Z,100902.00
2023-05-17T16:17:27.089Z,100898.00
2023-05-17T16:19:54.885Z,100909.00
2023-05-17T16:22:22.228Z,100902.00
2023-05-17T16:24:57.213Z,100899.00
2023-05-17T16:27:24.588Z,100910.00
2023-05-17T16:29:51.957Z,100906.00
2023-05-17T16:32:19.501Z,100914.00
2023-05-17T16:34:46.990Z,100908.00
2023-05-17T16:37:14.026Z,100932.00
2023-05-17T16:39:41.869Z,100930.00
2023-05-17T16:42:09.118Z,100927.00
2023-05-17T16:44:36.263Z,100936.00
2023-05-17T16:47:03.960Z,100947.00
2023-05-17T16:49:31.110Z,100951.00
2023-05-17T16:51:58.460Z,100950.00
2023-05-17T16:54:28.282Z,100965.00
2023-05-17T16:56:55.925Z,100961.00
2023-05-17T16:59:23.079Z,100965.00
2023-05-17T17:01:50.400Z,100970.00
2023-05-17T17:04:17.654Z,100975.00
2023-05-17T17:06:45.037Z,100971.00
2023-05-17T17:09:13.106Z,100980.00
2023-05-17T17:11:40.934Z,100985.00
2023-05-17T17:14:08.033Z,100992.00
2023-05-17T17:16:35.339Z,100991.00
2023-05-17T17:19:03.686Z,101002.00
2023-05-17T17:21:36.944Z,100997.00
2023-05-17T17:24:07.714Z,101001.00
2023-05-17T17:26:35.802Z,100999.00
2023-05-17T17:29:04.148Z,101008.00
2023-05-17T17:31:32.588Z,101002.00
2023-05-17T17:33:59.769Z,101003.00
2023-05-17T17:36:27.234Z,100958.00
2023-05-17T17:38:54.694Z,101014.00
2023-05-17T17:41:21.780Z,101027.00
2023-05-17T17:43:49.663Z,101019.00
2023-05-17T17:46:16.723Z,101029.00
2023-05-17T17:48:44.103Z,101026.00
2023-05-17T17:51:11.667Z,101024.00
2023-05-17T17:53:41.396Z,101025.00
2023-05-17T17:56:08.765Z,101027.00
2023-05-17T17:58:37.003Z,101029.00
2023-05-17T18:01:04.389Z,101025.00
2023-05-17T18:03:31.693Z,101016.00
2023-05-17T18:05:58.849Z,101013.00
2023-05-17T18:08:26.169Z,101023.00
2023-05-17T18:10:53.487Z,101020.00
2023-05-17T18:13:20.630Z,101025.00
2023-05-17T18:15:47.712Z,101030.00
2023-05-17T18:18:16.065Z,101032.00
2023-05-17T18:20:43.326Z,101031.00
2023-05-17T18:23:10.447Z,101048.00
2023-05-17T18:25:37.500Z,101045.00
2023-05-17T18:28:06.810Z,101048.00
2023-05-17T18:30:36.044Z,101048.00
2023-05-17T18:33:03.335Z,101050.00
2023-05-17T18:35:30.534Z,101069.00
2023-05-17T18:37:57.519Z,101058.00
2023-05-17T18:40:26.401Z,101050.00
2023-05-17T18:42:54.774Z,101062.00
2023-05-17T18:45:22.151Z,101070.00
2023-05-17T18:47:49.615Z,101069.00
2023-05-17T18:50:16.923Z,101060.00
2023-05-17T18:52:44.127Z,101067.00
2023-05-17T18:55:11.269Z,101070.00
2023-05-17T18:57:45.093Z,101079.00
2023-05-17T19:00:13.647Z,101091.00
2023-05-17T19:02:41.035Z,101086.00
2023-05-17T19:05:08.733Z,101099.00
2023-05-17T19:07:36.340Z,101093.00
2023-05-17T19:10:04.702Z,101095.00
2023-05-17T19:12:31.894Z,101093.00
2023-05-17T19:14:59.015Z,101100.00
2023-05-17T19:17:27.669Z,101093.00
2023-05-17T19:19:54.872Z,101091.00
2023-05-17T19:22:22.059Z,101086.00
2023-05-17T19:24:50.573Z,101087.00
2023-05-17T19:27:19.940Z,101077.00
2023-05-17T19:29:50.108Z,101083.00
2023-05-17T19:32:17.207Z,101077.00
2023-05-17T19:34:44.346Z,101082.00
2023-05-17T19:37:11.417Z,101084.00
2023-05-17T19:39:38.416Z,101093.00
2023-05-17T19:42:07.087Z,101114.00
2023-05-17T19:44:34.261Z,101109.00
2023-05-17T19:47:01.719Z,101104.00
2023-05-17T19:49:28.951Z,101104.00
2023-05-17T19:52:00.635Z,101110.00
2023-05-17T19:54:29.722Z,101079.00
2023-05-17T19:56:58.288Z,101100.00
2023-05-17T19:59:25.539Z,101094.00
2023-05-17T20:01:52.556Z,101105.00
2023-05-17T20:04:19.642Z,101109.00
2023-05-17T20:06:46.812Z,101113.00
2023-05-17T20:09:14.576Z,101113.00
2023-05-17T20:11:41.823Z,101119.00
2023-05-17T20:14:10.003Z,101124.00
2023-05-17T20:16:37.125Z,101127.00
2023-05-17T20:19:04.395Z,101125.00
2023-05-17T20:21:31.743Z,101132.00
2023-05-17T20:24:04.227Z,101133.00
2023-05-17T20:26:37.514Z,101129.00
2023-05-17T20:29:07.782Z,101131.00
2023-05-17T20:31:37.012Z,101129.00
2023-05-17T20:34:05.352Z,101115.00
2023-05-17T20:36:32.775Z,101130.00
2023-05-17T20:38:59.945Z,101126.00
2023-05-17T20:41:27.080Z,101133.00
2023-05-17T20:43:54.862Z,101131.00
2023-05-17T20:46:24.935Z,101132.00
2023-05-17T20:48:54.137Z,101138.00
2023-05-17T20:51:22.402Z,101131.00
2023-05-17T20:53:49.611Z,101128.00
2023-05-17T20:56:19.628Z,101120.00
2023-05-17T20:58:48.677Z,101127.00
2023-05-17T21:01:15.851Z,101119.00
2023-05-17T21:03:44.150Z,101130.00
2023-05-17T21:06:14.652Z,101137.00
2023-05-17T21:08:42.930Z,101131.00
2023-05-17T21:11:10.124Z,101135.00
2023-05-17T21:13:37.757Z,101138.00
2023-05-17T21:16:09.421Z,101143.00
2023-05-17T21:18:36.888Z,101139.00
2023-05-17T21:21:04.344Z,101136.00
2023-05-17T21:23:31.559Z,101121.00
2023-05-17T21:25:58.970Z,101139.00
2023-05-17T21:28:26.079Z,101143.00
2023-05-17T21:30:53.778Z,101151.00
2023-05-17T21:33:21.036Z,101144.00
2023-05-17T21:35:48.056Z,101143.00
2023-05-17T21:38:17.477Z,101124.00
2023-05-17T21:40:44.714Z,101145.00
2023-05-17T21:43:12.026Z,101133.00
2023-05-17T21:45:41.295Z,101134.00
2023-05-17T21:48:09.023Z,101125.00
2023-05-17T21:50:38.431Z,101130.00
2023-05-17T21:53:06.940Z,101127.00
2023-05-17T21:55:51.306Z,101129.00
2023-05-17T21:58:25.603Z,101131.00
2023-05-17T22:00:53.325Z,101131.00
2023-05-17T22:03:20.681Z,101131.00
2023-05-17T22:05:48.011Z,101129.00
2023-05-17T22:08:15.822Z,101131.00
2023-05-17T22:10:43.635Z,101124.00
2023-05-17T22:13:12.400Z,101134.00
2023-05-17T22:15:41.643Z,101130.00
2023-05-17T22:18:12.672Z,101127.00
2023-05-17T22:20:39.815Z,101126.00
2023-05-17T22:23:07.037Z,101103.00
2023-05-17T22:25:37.462Z,101114.00
2023-05-17T22:28:04.440Z,101131.00
2023-05-17T22:30:31.701Z,101140.00
2023-05-17T22:32:59.149Z,101144.00
2023-05-17T22:35:26.293Z,101149.00
2023-05-17T22:37:53.606Z,101148.00
2023-05-17T22:40:21.353Z,101154.00
2023-05-17T22:42:48.597Z,101149.00
2023-05-17T22:45:15.905Z,101150.00
2023-05-17T22:47:43.104Z,101150.00
2023-05-17T22:50:12.111Z,101158.00
2023-05-17T22:52:41.272Z,101165.00
2023-05-17T22:55:12.111Z,101169.00
2023-05-17T22:57:39.202Z,101170.00
2023-05-17T23:00:09.335Z,101153.00
2023-05-17T23:02:36.535Z,101173.00
2023-05-17T23:05:04.098Z,101178.00
2023-05-17T23:07:38.547Z,101180.00
2023-05-17T23:10:10.839Z,101170.00
2023-05-17T23:12:38.720Z,101179.00
2023-05-17T23:15:07.921Z,101178.00
2023-05-17T23:17:35.718Z,101187.00
2023-05-17T23:20:10.059Z,101197.00
2023-05-17T23:22:38.984Z,101199.00
2023-05-17T23:25:07.112Z,101180.00
2023-05-17T23:27:35.821Z,101192.00
2023-05-17T23:30:04.503Z,101198.00
2023-05-17T23:32:32.993Z,101204.00
2023-05-17T23:35:04.269Z,101202.00
2023-05-17T23:37:34.792Z,101215.00
2023-05-17T23:40:04.671Z,101206.00
2023-05-17T23:42:34.725Z,101194.00
2023-05-17T23:45:03.517Z,101186.00
2023-05-17T23:47:33.868Z,101187.00
2023-05-17T23:50:03.229Z,101203.00
2023-05-17T23:52:32.733Z,101202.00
2023-05-17T23:54:59.880Z,101191.00
2023-05-17T23:57:27.068Z,101195.00
2023-05-17T23:59:54.275Z,101196.00
